Cristian Gimenez

Scout - Olimpia
3 Apr 2027
Samstag
Verarbeitung

Persönlichkeit

Anpassungsfähigkeit (3) Ehrgeiz (17) Kontroverse (18) Loyalität (15) Druck (11) Professionalität (16) Fairness (14) Temperament (12)

Profil

Trainerstil Demokratisch
Lizenz Kontinentale Pro
Entschlossenheit 9
Menschenführung 14
Motivation 11
Disziplin 10
Arbeitszufriedenheit
63%
Ermüdung
0%
Rolle Scout
Gehalt 84.4K p/W
Vertrag 14.03.2030

Leistung

Verhalten Gut
Trainingseffektivität
32%
Spielerentwicklung
55%
Verletzungsprävention
40%
Taktische Umsetzung
70%

Letzte Ereignisse

Nahm an einer Scouting-Besprechung teil jetzt
Empfahl ein Transferziel jetzt
Empfahl ein Transferziel jetzt
Spieler begutachtet jetzt
Spieler begutachtet 7T her
Spiel beobachtet 7T her
Spieler begutachtet 7T her
Spieler begutachtet 7T her

Aktuell beobachtet

177
Spieler Verein Status Fähigkeit Vertrauen Beobachtet Zuletzt beobachtet Letzte Stimme
Fashion Sakala Al-Fayha Aktiv 133 / 113 40% 2 02.04.2027 -
Tom Cannon Sheffield United Aktiv 141 / 118 40% 2 02.04.2027 -
Noah Sadiki Sunderland Aktiv 143 / 162 40% 1 02.04.2027 -
Jacques Ekomié Wrexham Aktiv 141 / 140 40% 1 02.04.2027 -
Edoardo Bove Watford Aktiv 140 / 114 40% 1 02.04.2027 -
Soufiane Rahimi Al Ain Aktiv 145 / 125 40% 1 02.04.2027 -
Iqraam Rayners Mamelodi Sundowns Aktiv 141 / 111 40% 2 30.03.2027 -
Moussa Dembélé Al-Ettifaq Aktiv 137 / 126 40% 1 30.03.2027 -
Oli McBurnie Hull City Aktiv 125 / 140 40% 1 30.03.2027 -
Helinho Toluca Aktiv 132 / 118 40% 3 28.03.2027 -
Mohamed-Ali Cho Hull City Aktiv 125 / 122 40% 2 28.03.2027 -
Nicolò Zaniolo Udinese Aktiv 143 / 143 40% 2 28.03.2027 -
Armando Broja Burnley Aktiv 149 / 125 40% 1 27.03.2027 -
Mahmoud Al Bloushi Al Shabab Aktiv 158 / 161 40% 1 27.03.2027 -
Nordi Mukiele Sunderland Aktiv 144 / 151 40% 2 26.03.2027 -
Jovon Makama Norwich City Aktiv 134 / 112 40% 1 26.03.2027 -
Tyrese Campbell Sheffield United Aktiv 125 / 117 40% 1 26.03.2027 -
Domagoj Bradarić Hellas Verona Aktiv 140 / 115 40% 1 26.03.2027 -
Shea Charles Southampton Aktiv 135 / 143 40% 1 26.03.2027 -
Milan van Ewijk Coventry City Aktiv 139 / 130 40% 4 25.03.2027 -
Antonino Gallo Lecce Aktiv 143 / 137 40% 1 25.03.2027 -
Bosun Lawal Stoke City Aktiv 127 / 122 40% 1 25.03.2027 -
Kenny Tete Fulham Aktiv 143 / 160 40% 1 24.03.2027 -
Chris Mepham West Bromwich Albion Aktiv 136 / 142 40% 1 24.03.2027 -
Harry Clarke Preston Aktiv 127 / 112 40% 2 23.03.2027 -
Lewis Cook Bournemouth Aktiv 136 / 155 40% 1 23.03.2027 -
Ethan Pye Stockport County Aktiv 133 / 106 40% 1 23.03.2027 -
Joe Gelhardt Hull City Aktiv 140 / 118 40% 2 20.03.2027 -
Yousef Salech Cardiff City Aktiv 120 / 120 40% 2 20.03.2027 -
Sander Berge Fulham Aktiv 151 / 151 40% 1 20.03.2027 -
Flynn Downes Southampton Aktiv 119 / 143 40% 1 20.03.2027 -
Thierno Barry Everton Aktiv 130 / 158 40% 1 20.03.2027 -
Ao Tanaka Leeds United Aktiv 153 / 125 40% 2 17.03.2027 -
Jack Diamond Stockport County Aktiv 123 / 111 40% 2 17.03.2027 -
Jaden Philogene Ipswich Town Aktiv 143 / 147 40% 1 17.03.2027 -
Neco Williams Nottingham Forest Aktiv 144 / 138 40% 1 17.03.2027 -
Luke McNally Bristol City Aktiv 126 / 130 40% 1 17.03.2027 -
Stephen Eustáquio Swansea City Aktiv 141 / 136 40% 1 17.03.2027 -
Matthew Targett Hull City Aktiv 141 / 126 40% 3 16.03.2027 -
Kayne Ramsay Charlton Athletic Aktiv 124 / 118 40% 1 16.03.2027 -
Casper De Norre Millwall Aktiv 113 / 129 40% 1 16.03.2027 -
Alfie Doughty Millwall Aktiv 120 / 110 40% 4 14.03.2027 -
Pablo Maffeo Olympiacos Aktiv 137 / 141 40% 1 09.03.2027 -
Festy Ebosele Basaksehir Aktiv 139 / 142 40% 1 09.03.2027 -
Relebohile Mofokeng Orlando Pirates Aktiv 120 / 127 40% 2 08.03.2027 -
Marquinhos Spartak Moscow Aktiv 137 / 144 40% 3 08.03.2027 -
Aral Şimşir Trabzonspor Aktiv 138 / 117 40% 1 08.03.2027 -
Brodie Spencer Oxford United Aktiv 111 / 113 40% 1 08.03.2027 -
Nicolas Madsen Queens Park Rangers Aktiv 117 / 115 40% 1 08.03.2027 -
Dara O'Shea Ipswich Town Aktiv 147 / 117 40% 1 08.03.2027 -
Moussa Diaby Al-Ittihad Aktiv 161 / 152 40% 2 06.03.2027 -
Zeki Amdouni Burnley Aktiv 120 / 129 40% 1 06.03.2027 -
Nazar Voloshyn Dynamo Kyiv Aktiv 140 / 143 40% 2 05.03.2027 -
Paris Maghoma Norwich City Aktiv 110 / 105 40% 3 05.03.2027 -
Percy Erasmus SuperSport United Aktiv 137 / 133 40% 2 05.03.2027 -
Akinkunmi Amoo Ismaily Aktiv 135 / 110 40% 2 04.03.2027 -
Majid Dejagah Gostaresh Foulad Aktiv 122 / 132 40% 1 04.03.2027 -
Derry Murkin Derby County Aktiv 126 / 138 40% 1 04.03.2027 -
Nathan Collins Brentford Aktiv 155 / 146 40% 1 04.03.2027 -
Facundo Torres Shakhtar Aktiv 139 / 133 40% 1 27.02.2027 -
Andrea Colpani Monza Aktiv 135 / 150 40% 1 27.02.2027 -
Juan Bezerra Zamalek Aktiv 108 / 119 40% 2 25.02.2027 -
Alex Robertson Cardiff City Aktiv 121 / 132 40% 2 25.02.2027 -
Rumarn Burrell Queens Park Rangers Aktiv 133 / 127 40% 1 25.02.2027 -
Oswin Appollis Orlando Pirates Aktiv 111 / 126 40% 1 24.02.2027 -
Bobby Clark Derby County Aktiv 124 / 129 40% 1 24.02.2027 -
Welington Southampton Aktiv 139 / 127 40% 1 23.02.2027 -
Ethan Galbraith Swansea City Aktiv 145 / 150 40% 1 16.02.2027 -
Ali Soliman Masr El Makasa Aktiv 121 / 106 40% 1 16.02.2027 -
Koki Saito Queens Park Rangers Aktiv 131 / 111 40% 1 16.02.2027 -
Brian De Keersmaecker Oxford United Aktiv 132 / 113 40% 1 14.02.2027 -
Hidemasa Morita Hull City Aktiv 154 / 139 40% 1 14.02.2027 -
Nobel Mendy Hull City Aktiv 129 / 138 40% 1 14.02.2027 -
Leandro Andrade Polissia Aktiv 128 / 147 40% 1 13.02.2027 -
José Barreto Fehervar Aktiv 118 / 114 40% 1 13.02.2027 -
Andre Brooks Sheffield United Aktiv 125 / 140 40% 1 10.02.2027 -
Finn Azaz Southampton Aktiv 125 / 140 40% 1 09.02.2027 -
Richard Koné Queens Park Rangers Aktiv 115 / 141 40% 1 09.02.2027 -
Giorgi Chakvetadze Watford Aktiv 142 / 134 40% 1 08.02.2027 -
Azor Matusiwa Ipswich Town Aktiv 128 / 125 40% 1 02.02.2027 -
Joachim Andersen Fulham Aktiv 147 / 159 40% 1 02.02.2027 -
Mattia Mannini Juve Stabia Aktiv 118 / 113 40% 1 15.01.2027 -
Tobías Andrada River Plate Aktiv 110 / 138 40% 1 15.01.2027 -
Surprise Manthosi Polokwane City Aktiv 78 / 93 40% 1 15.01.2027 -
Arjan Malić Sturm Graz Aktiv 107 / 137 40% 1 14.01.2027 -
Agustín Obregón River Plate Aktiv 109 / 107 40% 1 14.01.2027 -
Rhys Walters Port Vale Aktiv 110 / 122 40% 1 14.01.2027 -
Facundo Di Biasi Gimnasia La Plata Aktiv 117 / 120 40% 2 12.01.2027 -
Teo Rodríguez Pagano San Lorenzo Aktiv 117 / 111 40% 1 12.01.2027 -
Tiago Freitas Benfica Aktiv 118 / 96 40% 1 12.01.2027 -
Riley Owen Pergolettese Aktiv 108 / 122 40% 1 04.01.2027 -
Alejo Fernández Kayserispor Aktiv 81 / 109 40% 1 04.01.2027 -
Vinícius Lira Santos Aktiv 119 / 135 40% 1 02.01.2027 -
Ian Garguez Palestino Aktiv 111 / 112 40% 1 02.01.2027 -
Nazareno Kihm Ferro Carril Oeste Aktiv 114 / 105 40% 1 02.01.2027 -
Daniel Vernattus Metalist Aktiv 80 / 106 40% 1 31.12.2026 -
Juan Pablo De la Reta Maipú Aktiv 104 / 106 40% 1 31.12.2026 -
Pedro Villalba Libertad Aktiv 95 / 105 65% 1 28.12.2026 Befürworten
Lucas Noubi Deportivo La Coruña Aktiv 108 / 106 40% 1 27.12.2026 -
Juan Manuel Villalba Tigre Aktiv 114 / 111 40% 1 27.12.2026 -
César Benítez Sportivo Trinidense Aktiv 107 / 103 65% 1 02.12.2026 Befürworten
Matko Miljevic Racing Club Aktiv 126 / 120 40% 1 27.11.2026 -
Augusto Schott Talleres Aktiv 131 / 114 40% 1 27.11.2026 -
Franco Zapiola Platense Aktiv 120 / 123 40% 1 27.11.2026 -
Marvin Keller Young Boys Aktiv 127 / 154 40% 3 26.11.2026 -
Szymon Weirauch Lechia Aktiv 107 / 111 40% 2 26.11.2026 -
Federico Gomes Gerth Unión de Santa Fe Aktiv 102 / 118 40% 1 26.11.2026 -
Facundo Quintana Defensa y Justicia Aktiv 106 / 110 40% 1 25.11.2026 -
Iñaki Larthirigoyen San Telmo Aktiv 118 / 111 40% 1 22.11.2026 -
Juan Bisanz Huracán Aktiv 128 / 119 40% 1 22.11.2026 -
Killian Cahill Leyton Orient Aktiv 95 / 85 40% 1 20.11.2026 -
Daniil Khudyakov Sturm Graz Aktiv 109 / 139 40% 1 20.11.2026 -
Josh Keeley Luton Town Aktiv 124 / 138 40% 2 19.11.2026 -
Luka Lijeskić Radnicki 1923 Aktiv 111 / 128 40% 1 19.11.2026 -
Lukas Ramil Sauer All Boys Aktiv 111 / 119 40% 1 19.11.2026 -
Afimico Pululu Al-Hazem Aktiv 133 / 132 40% 2 18.11.2026 -
Ibrahim Tarek Masr El Makasa Aktiv 126 / 128 40% 1 18.11.2026 -
Sergey Pinyaev Lokomotiv Moscow Aktiv 127 / 108 40% 1 18.11.2026 -
Robert Petkovic Zadar Aktiv 133 / 131 40% 2 15.11.2026 -
Aarón Molinas Defensa y Justicia Verloren 132 / 123 40% 1 15.11.2026 -
César Ibáñez Huracán Aktiv 131 / 129 40% 1 15.11.2026 -
Emil Ceïde Rosenborg Aktiv 125 / 105 40% 1 13.11.2026 -
Adrián Sánchez Belgrano Aktiv 127 / 131 40% 1 13.11.2026 -
Kevin Zenón Boca Juniors Aktiv 135 / 114 40% 1 13.11.2026 -
Ruslan Neshcheret Dynamo Kyiv Aktiv 129 / 115 40% 5 11.11.2026 -
Leandro Brey Boca Juniors Aktiv 114 / 115 40% 1 11.11.2026 -
Facundo Vila Estudiantes Aktiv 95 / 114 40% 1 10.11.2026 -
Luciano Peraggini Maipú Aktiv 105 / 116 40% 1 10.11.2026 -
Murphy Cooper Plymouth Argyle Aktiv 119 / 112 40% 1 10.11.2026 -
Leandro Lozano Boca Juniors Abgelehnt 122 / 121 40% 2 04.11.2026 Mehr Infos nötig
Imanol Machuca Independiente Aktiv 128 / 118 40% 1 04.11.2026 -
Tomás Silva Platense Aktiv 126 / 133 40% 1 04.11.2026 -
Felipe Peña Biafore Lanús Abgelehnt 129 / 128 40% 1 02.11.2026 Mehr Infos nötig
Joaquín García Vélez Aktiv 119 / 117 40% 1 02.11.2026 -
Milad Karimi Padideh Aktiv 93 / 114 40% 2 01.11.2026 -
Pascal Loretz Luzern Aktiv 113 / 117 40% 1 01.11.2026 -
Jakub Surovčík Sparta Prague Aktiv 98 / 102 40% 1 30.10.2026 -
Roland Nagy Haladas Aktiv 91 / 101 40% 1 30.10.2026 -
Laureano Martínez Talleres Aktiv 108 / 94 40% 1 30.10.2026 -
Patrik Wålemark Lech Aktiv 119 / 112 40% 1 27.10.2026 -
Gift Zwane Platinum Stars Aktiv 109 / 109 40% 1 27.10.2026 -
Heorhii Yermakov Metalist Aktiv 110 / 125 40% 3 26.10.2026 -
Andrija Katić AS Trencin Aktiv 105 / 117 40% 1 26.10.2026 -
Viktor Baier Viktoria Plzen Aktiv 130 / 131 40% 1 23.10.2026 -
Matevž Dajčar Olimpija Ljubljana Aktiv 112 / 121 40% 1 21.10.2026 -
Nikita Kokarev Krylya Sovetov Aktiv 112 / 120 40% 5 20.10.2026 -
Strahinja Manojlović Radnicki Nis Aktiv 106 / 91 40% 1 20.10.2026 -
Ole-Didrik Blomberg Bodo/Glimt Aktiv 139 / 117 40% 3 19.10.2026 -
Kevin Medina Córdoba Aktiv 117 / 114 40% 1 19.10.2026 -
Fedor Lapoukhov CSKA Sofia Aktiv 124 / 127 40% 2 13.10.2026 -
Răzvan Sava Universitatea Craiova Aktiv 123 / 127 40% 1 13.10.2026 -
Santiago Luján Al Ain Aktiv 106 / 98 40% 2 12.10.2026 -
Alejo Dramisino Honved Aktiv 124 / 134 40% 1 12.10.2026 -
Shapi Suleymanov Sporting Kansas City Aktiv 125 / 124 40% 1 08.10.2026 -
Halldór Snær Georgsson KR Aktiv 90 / 127 40% 1 04.10.2026 -
Armindo Sieb Los Angeles Football Club Aktiv 115 / 113 40% 2 30.09.2026 -
Kein Sato FC Tokyo Aktiv 140 / 120 40% 1 30.09.2026 -
Taisei Miyashiro Seattle Sounders Aktiv 132 / 114 40% 1 30.09.2026 -
Ľubomír Belko Viking Aktiv 112 / 119 40% 2 29.09.2026 -
Sean Zawadzki Columbus Crew Aktiv 124 / 132 40% 1 29.09.2026 -
Chris Brady Chicago Fire Aktiv 120 / 125 40% 1 26.09.2026 -
Nahuel Ulariaga Al Ahli Aktiv 111 / 110 40% 1 25.09.2026 -
Mohammad Mehdi Mohebi Persepolis Aktiv 108 / 110 40% 1 25.09.2026 -
Andrei Cordea CFR Cluj Aktiv 110 / 122 40% 1 24.09.2026 -
Valentín Depietri Talleres Aktiv 120 / 118 40% 1 24.09.2026 -
Franko Kolić Istra 1961 Aktiv 111 / 119 40% 1 21.09.2026 -
Yuma Obata Avispa Fukuoka Aktiv 120 / 130 40% 1 21.09.2026 -
Ralph Orquin OGC Nice Aktiv 125 / 139 40% 1 20.09.2026 -
Victor Lind Hammarby Aktiv 127 / 115 40% 1 20.09.2026 -
Matías Pellegrini Vélez Aktiv 114 / 131 40% 1 20.09.2026 -
Thapelo Maseko FC Copenhagen Aktiv 104 / 124 40% 1 14.09.2026 -
Quinn Sullivan Philadelphia Union Aktiv 117 / 125 40% 1 12.09.2026 -
Klemen Mihelak Jablonec Aktiv 110 / 89 40% 1 11.09.2026 -
Egoitz Arana Real Sociedad Aktiv 93 / 101 40% 2 09.09.2026 -
Oleksandr Saputin Zorya Aktiv 99 / 106 40% 1 08.09.2026 -
Armstrong Oko-Flex Levski Aktiv 105 / 125 40% 1 07.08.2026 -
Cédric Don Maccabi Haifa Aktiv 109 / 133 40% 1 07.08.2026 -